Hlavní strana
METAR-TAF:

METAR-TAF

Letiště :

Male, Maledivy

Mezinárodní letiště Male

zeměpisná šířka: 04-12N, zeměpisná délka: 073-32E, výška: 2 m

Aktuální stav počasí

Zpráva byla vytvořena před 36 minutami, v 16:00 UTC
Západoseverozápadní vítr 12 kt
Teplota 30°C
Vlhkost vzduchu 79%
Tlak 1009 hPa
Viditelnost 10 km a více
Polojasno ve výšce 1700 ft
Skoro jasno ve výšce 1800 ft, Cumulonimbus.
Oblačno až skoro zataženo ve výšce 27000 ft
bouřka

METAR: VRMM 251600Z 29012KT 9999 TS SCT017 FEW018CB BKN270 30/26 Q1009 RETS CB S TEMPO 7000 -TSRA

Čas: 21:36 (16:36 UTC)

Předpověď počasí

Zpráva byla vytvořena před 5 hodinami a 36 minutami, v 11:00 UTC
Předpověď platná od 25 v 12 UTC do 26 v 18 UTC
Západní vítr 11 kt
Viditelnost 10 km a více
Skoro jasno ve výšce 1900 ft
Dočasný
od 25 v 15 UTC do 25 v 20 UTC
Skoro jasno ve výšce 1900 ft, Cumulonimbus.

TAF: VRMM 251100Z 2512/2618 27011KT 9999 FEW019 TEMPO 2515/2520 FEW019CB

Stav a předpovědi počasí z více než 4 000 letišť (zprávy METAR a TAF).

Červené a žluté tečky na mapě představují dostupné meteorologické stanice.

Když kurzor umístíte na tečku, zobrazí se název stanice.

Pak kliknutím zobrazíte stav a předpověď počasí.

Chcete-li změnit mapu, kliknutím na zelené tlačítko se znaménkem +mapu přiblížíte, kliknutím na zelené tlačítko se znaménkem – mapu oddálíte a kliknutím na zelené šipky přejdete na sousední mapy.


METAR-TAF: